createdAt,value
2018-05-21T00:00:12.729Z,65.07
2018-05-21T00:02:49.560Z,61.70
2018-05-21T00:05:49.294Z,67.37
2018-05-21T00:08:18.449Z,69.67
2018-05-21T00:10:47.523Z,72.90
2018-05-21T00:13:18.658Z,72.87
2018-05-21T00:15:47.921Z,70.70
2018-05-21T00:18:21.480Z,72.07
2018-05-21T00:20:51.692Z,69.00
2018-05-21T00:23:25.169Z,69.87
2018-05-21T00:25:56.846Z,70.20
2018-05-21T00:28:26.053Z,74.77
2018-05-21T00:30:55.589Z,70.83
2018-05-21T00:33:24.742Z,76.27
2018-05-21T00:35:53.951Z,72.87
2018-05-21T00:38:39.923Z,73.67
2018-05-21T00:41:10.631Z,71.43
2018-05-21T00:43:40.285Z,68.90
2018-05-21T00:46:15.497Z,65.23
2018-05-21T00:48:45.297Z,70.23
2018-05-21T00:51:14.689Z,67.83
2018-05-21T00:53:43.841Z,69.63
2018-05-21T00:56:25.430Z,70.60
2018-05-21T00:58:56.534Z,70.53
2018-05-21T01:01:25.846Z,73.13
2018-05-21T01:04:05.707Z,72.00
2018-05-21T01:06:34.957Z,72.40
2018-05-21T01:09:07.557Z,72.57
2018-05-21T01:11:37.824Z,79.30
2018-05-21T01:14:07.385Z,75.30
2018-05-21T01:16:38.066Z,69.73
2018-05-21T01:19:09.352Z,76.97
2018-05-21T01:21:39.237Z,74.47
2018-05-21T01:24:10.783Z,76.13
2018-05-21T01:26:40.844Z,80.37
2018-05-21T01:29:10.936Z,71.90
2018-05-21T01:31:41.635Z,73.10
2018-05-21T01:37:09.363Z,89.83
2018-05-21T01:39:42.085Z,95.97
2018-05-21T01:42:13.267Z,91.43
2018-05-21T01:50:31.022Z,95.77
2018-05-21T01:53:00.228Z,101.30
2018-05-21T01:55:29.564Z,99.90
2018-05-21T01:57:59.017Z,100.60
2018-05-21T02:00:29.566Z,103.43
2018-05-21T02:02:58.930Z,96.10
2018-05-21T02:05:28.827Z,92.50
2018-05-21T02:08:01.814Z,93.80
2018-05-21T02:10:33.521Z,103.83
2018-05-21T02:13:02.841Z,97.70
2018-05-21T02:15:32.237Z,93.27
2018-05-21T02:18:01.534Z,100.83
2018-05-21T02:20:30.991Z,93.97
2018-05-21T02:23:00.336Z,105.63
2018-05-21T02:25:31.873Z,96.93
2018-05-21T02:28:01.439Z,95.43
2018-05-21T02:30:30.819Z,90.97
2018-05-21T02:33:00.700Z,68.07
2018-05-21T02:35:31.057Z,44.87
2018-05-21T02:38:00.417Z,27.97
2018-05-21T02:40:29.801Z,19.90
2018-05-21T02:42:59.149Z,25.23
2018-05-21T02:45:29.203Z,38.60
2018-05-21T02:47:59.307Z,53.67
2018-05-21T02:50:28.608Z,70.53
2018-05-21T02:52:58.323Z,71.90
2018-05-21T02:55:28.385Z,65.93
2018-05-21T02:58:00.517Z,71.00
2018-05-21T03:00:30.453Z,65.70
2018-05-21T03:03:01.660Z,58.30
2018-05-21T03:05:31.822Z,63.87
2018-05-21T03:08:02.075Z,60.47
2018-05-21T03:10:32.673Z,65.33
2018-05-21T03:13:02.124Z,55.10
2018-05-21T03:15:31.424Z,61.13
2018-05-21T03:18:00.661Z,60.70
2018-05-21T03:20:30.938Z,60.27
2018-05-21T03:23:03.137Z,52.83
2018-05-21T03:25:34.004Z,56.57
2018-05-21T03:28:03.376Z,55.57
2018-05-21T03:30:32.641Z,64.67
2018-05-21T03:33:03.232Z,54.63
2018-05-21T03:35:32.454Z,56.63
2018-05-21T03:38:02.790Z,57.93
2018-05-21T03:40:32.249Z,54.97
2018-05-21T03:43:01.366Z,59.00
2018-05-21T03:45:30.708Z,54.47
2018-05-21T03:47:59.831Z,45.40
2018-05-21T03:50:28.998Z,34.63
2018-05-21T03:52:58.934Z,34.23
2018-05-21T03:55:29.062Z,36.07
2018-05-21T03:57:58.220Z,27.87
2018-05-21T04:00:38.876Z,23.10
2018-05-21T04:03:19.895Z,35.27
2018-05-21T04:05:49.129Z,22.43
2018-05-21T04:08:18.270Z,25.57
2018-05-21T04:10:47.554Z,32.20
2018-05-21T04:13:18.241Z,24.07
2018-05-21T04:15:47.608Z,25.20
2018-05-21T04:18:16.814Z,24.03
2018-05-21T04:20:46.689Z,22.50
2018-05-21T04:23:16.861Z,20.60
2018-05-21T04:25:46.020Z,19.77
2018-05-21T04:28:15.285Z,26.97
2018-05-21T04:30:45.100Z,34.70
2018-05-21T04:33:14.793Z,47.37
2018-05-21T04:35:44.920Z,37.27
2018-05-21T04:38:15.016Z,41.60
2018-05-21T04:40:44.117Z,39.17
2018-05-21T04:43:14.397Z,42.47
2018-05-21T04:45:43.512Z,42.37
2018-05-21T04:48:15.097Z,40.13
2018-05-21T04:50:45.493Z,41.57
2018-05-21T04:53:15.141Z,48.53
2018-05-21T04:55:44.379Z,52.33
2018-05-21T04:58:13.728Z,47.60
2018-05-21T05:00:43.750Z,49.43
2018-05-21T05:03:14.644Z,50.77
2018-05-21T05:05:43.863Z,51.57
2018-05-21T05:08:14.043Z,41.47
2018-05-21T05:10:43.654Z,42.13
2018-05-21T05:13:13.732Z,37.80
2018-05-21T05:15:43.538Z,32.70
2018-05-21T05:18:13.533Z,26.37
2018-05-21T05:20:42.722Z,20.73
2018-05-21T05:23:11.878Z,21.37
2018-05-21T05:25:41.586Z,23.50
2018-05-21T05:28:11.398Z,23.80
2018-05-21T05:30:40.673Z,24.50
2018-05-21T05:33:09.935Z,23.77
2018-05-21T05:35:39.575Z,22.17
2018-05-21T05:38:08.756Z,24.63
2018-05-21T05:40:38.024Z,23.93
2018-05-21T05:43:07.380Z,25.27
2018-05-21T05:45:36.496Z,25.53
2018-05-21T05:48:06.983Z,25.07
2018-05-21T05:50:38.133Z,29.57
2018-05-21T05:53:07.361Z,23.50
2018-05-21T05:55:37.101Z,28.10
2018-05-21T05:58:07.058Z,26.17
2018-05-21T06:00:36.242Z,22.30
2018-05-21T06:03:05.349Z,30.60
2018-05-21T06:05:34.480Z,25.27
2018-05-21T06:08:03.807Z,23.63
2018-05-21T06:10:33.643Z,23.43
2018-05-21T06:13:02.795Z,30.27
2018-05-21T06:15:32.015Z,28.47
2018-05-21T06:18:02.821Z,23.53
2018-05-21T06:20:31.919Z,20.27
2018-05-21T06:23:01.077Z,26.17
2018-05-21T06:25:30.249Z,36.87
2018-05-21T06:27:59.341Z,26.67
2018-05-21T06:30:28.452Z,31.77
2018-05-21T06:32:57.597Z,34.07
2018-05-21T06:35:26.675Z,34.60
2018-05-21T06:38:05.118Z,34.77
2018-05-21T06:40:35.256Z,35.97
2018-05-21T06:43:04.391Z,29.63
2018-05-21T06:45:33.516Z,32.17
2018-05-21T06:48:03.451Z,31.33
2018-05-21T06:50:32.627Z,30.70
2018-05-21T06:53:02.538Z,32.47
2018-05-21T06:55:32.461Z,32.23
2018-05-21T06:58:03.396Z,34.90
2018-05-21T07:00:32.585Z,38.93
2018-05-21T07:03:01.864Z,30.87
2018-05-21T07:05:30.986Z,38.53
2018-05-21T07:08:00.376Z,41.63
2018-05-21T07:10:30.543Z,34.40
2018-05-21T07:12:59.604Z,39.37
2018-05-21T07:15:28.721Z,35.37
2018-05-21T07:17:58.548Z,40.90
2018-05-21T07:20:27.925Z,36.80
2018-05-21T07:22:57.805Z,28.23
2018-05-21T07:25:26.872Z,31.73
2018-05-21T07:27:56.389Z,40.77
2018-05-21T07:30:25.556Z,28.73
2018-05-21T07:32:54.672Z,27.10
2018-05-21T07:35:24.686Z,31.03
2018-05-21T07:37:53.929Z,28.23
2018-05-21T07:40:23.991Z,32.50
2018-05-21T07:42:53.456Z,24.30
2018-05-21T07:45:23.946Z,31.80
2018-05-21T07:47:54.081Z,34.23
2018-05-21T07:50:23.183Z,33.97
2018-05-21T07:52:52.908Z,28.07
2018-05-21T07:55:22.034Z,30.53
2018-05-21T07:57:51.293Z,28.87
2018-05-21T08:00:20.436Z,27.50
2018-05-21T08:03:00.357Z,31.10
2018-05-21T08:05:29.519Z,28.23
2018-05-21T08:07:58.598Z,29.10
2018-05-21T08:10:28.626Z,27.10
2018-05-21T08:12:57.734Z,29.67
2018-05-21T08:15:26.889Z,28.77
2018-05-21T08:17:55.974Z,31.97
2018-05-21T08:20:25.074Z,28.83
2018-05-21T08:22:54.226Z,28.60
2018-05-21T08:25:31.100Z,34.60
2018-05-21T08:28:00.735Z,29.90
2018-05-21T08:30:29.864Z,26.93
2018-05-21T08:32:59.962Z,33.20
2018-05-21T08:35:29.973Z,28.40
2018-05-21T08:37:59.477Z,29.57
2018-05-21T08:40:28.661Z,32.50
2018-05-21T08:42:57.872Z,32.27
2018-05-21T08:45:27.775Z,37.87
2018-05-21T08:47:57.604Z,31.17
2018-05-21T08:50:26.837Z,24.90
2018-05-21T08:52:56.055Z,32.93
2018-05-21T08:55:25.162Z,27.57
2018-05-21T08:57:54.227Z,26.97
2018-05-21T09:00:23.284Z,29.97
2018-05-21T09:02:52.486Z,26.77
2018-05-21T09:05:21.595Z,27.23
2018-05-21T09:07:50.810Z,27.03
2018-05-21T09:10:19.964Z,27.07
2018-05-21T09:12:49.092Z,32.77
2018-05-21T09:15:18.218Z,22.20
2018-05-21T09:17:47.368Z,28.33
2018-05-21T09:20:16.480Z,28.80
2018-05-21T09:22:46.306Z,33.77
2018-05-21T09:25:15.401Z,31.73
2018-05-21T09:27:44.521Z,25.67
2018-05-21T09:30:13.762Z,25.53
2018-05-21T09:32:43.931Z,27.27
2018-05-21T09:35:13.047Z,40.80
2018-05-21T09:37:42.086Z,43.70
2018-05-21T09:40:11.699Z,45.23
2018-05-21T09:42:40.743Z,36.33
2018-05-21T09:45:09.832Z,38.83
2018-05-21T09:47:38.941Z,36.97
2018-05-21T09:50:08.014Z,28.00
2018-05-21T09:52:37.240Z,33.53
2018-05-21T09:55:06.416Z,25.93
2018-05-21T09:57:35.504Z,27.70
2018-05-21T10:00:04.805Z,28.33
2018-05-21T10:02:33.845Z,34.97
2018-05-21T10:05:02.988Z,31.77
2018-05-21T10:07:32.036Z,26.80
2018-05-21T10:10:01.130Z,30.97
2018-05-21T10:12:30.177Z,31.77
2018-05-21T10:14:59.424Z,25.53
2018-05-21T10:17:28.560Z,29.90
2018-05-21T10:19:57.640Z,34.37
2018-05-21T10:22:26.750Z,26.07
2018-05-21T10:24:55.898Z,30.33
2018-05-21T10:27:24.960Z,32.50
2018-05-21T10:29:54.063Z,32.20
2018-05-21T10:32:23.904Z,37.57
2018-05-21T10:34:53.005Z,42.73
2018-05-21T10:37:26.003Z,36.10
2018-05-21T10:39:55.145Z,46.03
2018-05-21T10:42:24.585Z,48.20
2018-05-21T10:44:53.754Z,47.33
2018-05-21T10:47:23.635Z,47.43
2018-05-21T10:49:52.685Z,37.57
2018-05-21T10:52:21.755Z,41.07
2018-05-21T10:54:51.576Z,29.80
2018-05-21T10:57:21.406Z,34.70
2018-05-21T10:59:50.818Z,33.33
2018-05-21T11:02:19.920Z,28.07
2018-05-21T11:04:49.105Z,38.60
2018-05-21T11:07:18.222Z,35.80
2018-05-21T11:09:47.821Z,37.47
2018-05-21T11:12:17.104Z,39.27
2018-05-21T11:14:46.329Z,35.93
2018-05-21T11:17:15.395Z,42.27
2018-05-21T11:19:44.616Z,38.27
2018-05-21T11:22:13.902Z,38.10
2018-05-21T11:24:43.207Z,36.03
2018-05-21T11:27:12.306Z,38.67
2018-05-21T11:29:41.382Z,38.50
2018-05-21T11:32:10.517Z,33.57
2018-05-21T11:34:39.638Z,36.00
2018-05-21T11:37:08.686Z,33.90
2018-05-21T11:39:37.839Z,39.53
2018-05-21T11:42:07.010Z,36.73
2018-05-21T11:44:38.916Z,40.97
2018-05-21T11:47:09.126Z,40.27
2018-05-21T11:49:38.736Z,48.80
2018-05-21T11:52:08.578Z,41.43
2018-05-21T11:54:37.700Z,30.30
2018-05-21T11:57:07.545Z,34.97
2018-05-21T11:59:36.750Z,47.63
2018-05-21T12:02:06.740Z,45.33
2018-05-21T12:04:36.571Z,42.83
2018-05-21T12:07:05.751Z,38.03
2018-05-21T12:09:35.555Z,45.30
2018-05-21T12:12:05.366Z,41.40
2018-05-21T12:14:35.434Z,49.13
2018-05-21T12:17:06.091Z,46.00
2018-05-21T12:19:35.481Z,34.43
2018-05-21T12:22:08.472Z,30.17
2018-05-21T12:24:37.676Z,34.50
2018-05-21T12:27:10.642Z,35.10
2018-05-21T12:29:39.772Z,40.43
2018-05-21T12:32:10.723Z,37.73
2018-05-21T12:34:41.668Z,35.47
2018-05-21T12:37:11.706Z,57.20
2018-05-21T12:39:41.108Z,31.37
2018-05-21T12:42:15.065Z,45.13
2018-05-21T12:44:46.402Z,35.53
2018-05-21T12:47:17.249Z,31.50
2018-05-21T12:49:46.585Z,29.80
2018-05-21T12:52:15.759Z,29.33
2018-05-21T12:54:47.202Z,35.70
2018-05-21T12:57:16.794Z,30.30
2018-05-21T12:59:46.028Z,26.67
2018-05-21T13:02:15.365Z,30.23
2018-05-21T13:04:44.521Z,32.17
2018-05-21T13:07:14.047Z,29.67
2018-05-21T13:09:43.355Z,30.63
2018-05-21T13:12:12.709Z,27.60
2018-05-21T13:14:42.692Z,33.87
2018-05-21T13:17:11.940Z,32.97
2018-05-21T13:19:41.668Z,33.27
2018-05-21T13:22:10.861Z,31.17
2018-05-21T13:24:40.332Z,24.30
2018-05-21T13:27:09.684Z,35.07
2018-05-21T13:29:39.076Z,26.47
2018-05-21T13:32:08.864Z,30.33
2018-05-21T13:34:44.427Z,29.63
2018-05-21T13:37:16.549Z,35.60
2018-05-21T13:39:48.418Z,23.23
2018-05-21T13:42:17.929Z,24.67
2018-05-21T13:44:47.522Z,23.87
2018-05-21T13:47:19.677Z,23.43
2018-05-21T13:49:50.612Z,18.20
2018-05-21T13:52:19.899Z,23.73
2018-05-21T13:54:49.103Z,20.53
2018-05-21T13:57:18.353Z,19.97
2018-05-21T13:59:48.289Z,17.77
2018-05-21T14:02:17.749Z,19.50
2018-05-21T14:09:26.491Z,20.97
2018-05-21T14:11:57.039Z,17.13
2018-05-21T14:14:27.602Z,22.10
2018-05-21T14:19:32.150Z,25.67
2018-05-21T14:22:02.967Z,65.13
2018-05-21T14:24:32.545Z,25.53
2018-05-21T14:27:08.654Z,17.43
2018-05-21T14:29:38.887Z,23.30
2018-05-21T14:32:09.498Z,25.50
2018-05-21T14:34:38.981Z,18.50
2018-05-21T14:37:09.043Z,17.83
2018-05-21T14:39:41.549Z,17.03
2018-05-21T14:42:15.245Z,24.17
2018-05-21T14:44:46.252Z,20.67
2018-05-21T14:47:47.008Z,18.40
2018-05-21T14:50:17.586Z,14.17
2018-05-21T14:57:57.986Z,16.37
2018-05-21T15:00:27.628Z,21.00
2018-05-21T15:02:56.909Z,20.80
2018-05-21T15:05:27.191Z,16.53
2018-05-21T15:08:25.370Z,21.27
2018-05-21T15:11:00.630Z,17.07
2018-05-21T15:13:32.836Z,16.30
2018-05-21T15:16:03.139Z,8.00
2018-05-21T15:18:33.148Z,13.90
2018-05-21T15:21:04.603Z,11.73
2018-05-21T15:23:35.967Z,15.83
2018-05-21T15:26:05.887Z,9.87
2018-05-21T15:28:37.866Z,12.00
2018-05-21T15:31:08.193Z,14.47
2018-05-21T15:33:40.900Z,26.73
2018-05-21T15:36:11.570Z,11.70
2018-05-21T15:38:46.901Z,15.63
2018-05-21T15:41:17.209Z,16.07
2018-05-21T15:43:51.923Z,22.03
2018-05-21T15:46:26.604Z,32.77
2018-05-21T15:48:57.768Z,10.47
2018-05-21T15:51:28.849Z,16.47
2018-05-21T15:53:58.522Z,16.17
2018-05-21T15:56:29.990Z,9.03
2018-05-21T15:59:03.520Z,12.67
2018-05-21T16:01:37.673Z,25.27
2018-05-21T16:04:11.306Z,8.50
2018-05-21T16:06:41.143Z,9.60
2018-05-21T16:09:19.292Z,5.07
2018-05-21T16:11:49.865Z,14.07
2018-05-21T16:14:21.235Z,13.23
2018-05-21T16:16:54.430Z,9.73
2018-05-21T16:19:28.127Z,7.47
2018-05-21T16:21:59.731Z,16.63
2018-05-21T16:24:29.548Z,8.07
2018-05-21T16:26:59.473Z,21.93
2018-05-21T16:29:30.034Z,15.70
2018-05-21T16:32:01.007Z,22.87
2018-05-21T16:34:30.517Z,13.03
2018-05-21T16:37:00.472Z,9.43
2018-05-21T16:39:32.306Z,15.83
2018-05-21T16:42:03.674Z,10.63
2018-05-21T16:44:34.176Z,10.57
2018-05-21T16:47:07.639Z,12.13
2018-05-21T16:49:37.767Z,24.03
2018-05-21T16:52:08.568Z,13.40
2018-05-21T16:54:39.990Z,14.67
2018-05-21T16:57:09.894Z,9.40
2018-05-21T16:59:39.309Z,10.97
2018-05-21T17:02:11.331Z,17.87
2018-05-21T17:04:43.033Z,13.90
2018-05-21T17:07:15.309Z,9.57
2018-05-21T17:12:28.565Z,16.43
2018-05-21T17:14:58.817Z,9.50
2018-05-21T17:17:36.833Z,10.10
2018-05-21T17:20:08.989Z,11.07
2018-05-21T17:22:40.641Z,12.03
2018-05-21T17:25:13.052Z,9.77
2018-05-21T17:27:42.563Z,12.03
2018-05-21T17:30:49.099Z,11.47
2018-05-21T17:33:19.178Z,17.10
2018-05-21T17:41:57.169Z,10.13
2018-05-21T17:44:33.831Z,18.13
2018-05-21T17:50:09.660Z,10.15
2018-05-21T17:55:21.658Z,6.73
2018-05-21T17:57:56.697Z,9.07
2018-05-21T18:03:05.306Z,11.57
2018-05-21T18:05:36.315Z,9.57
2018-05-21T18:08:06.505Z,8.30
2018-05-21T18:10:37.739Z,8.60
2018-05-21T18:13:08.505Z,13.93
2018-05-21T18:15:38.604Z,12.43
2018-05-21T18:18:09.197Z,7.28
2018-05-21T18:20:41.928Z,13.20
2018-05-21T18:23:34.446Z,14.27
2018-05-21T18:40:44.017Z,6.05
2018-05-21T18:43:13.839Z,10.55
2018-05-21T18:45:43.882Z,4.70
2018-05-21T18:48:13.986Z,6.10
2018-05-21T18:50:45.473Z,7.35
2018-05-21T18:53:14.816Z,7.40
2018-05-21T18:55:45.079Z,6.35
2018-05-21T18:58:14.438Z,4.03
2018-05-21T19:00:43.651Z,8.80
2018-05-21T19:03:13.753Z,8.32
2018-05-21T19:05:43.638Z,6.95
2018-05-21T19:08:15.442Z,15.32
2018-05-21T19:10:45.571Z,9.48
2018-05-21T19:13:15.222Z,10.27
2018-05-21T19:15:44.616Z,17.73
2018-05-21T19:18:13.757Z,9.20
2018-05-21T19:20:42.973Z,7.68
2018-05-21T19:23:12.843Z,8.98
2018-05-21T19:25:42.068Z,10.85
2018-05-21T19:28:12.656Z,7.32
2018-05-21T19:30:42.156Z,12.55
2018-05-21T19:33:12.226Z,19.35
2018-05-21T19:35:41.809Z,12.20
2018-05-21T19:38:13.452Z,12.45
2018-05-21T19:40:44.350Z,13.57
2018-05-21T19:43:14.817Z,18.50
2018-05-21T19:45:44.215Z,9.73
2018-05-21T19:48:15.537Z,13.10
2018-05-21T19:50:52.265Z,4.82
2018-05-21T19:53:21.426Z,11.63
2018-05-21T19:55:51.691Z,9.32
2018-05-21T19:58:21.019Z,7.35
2018-05-21T20:00:51.190Z,9.27
2018-05-21T20:03:20.479Z,6.50
2018-05-21T20:05:50.538Z,9.52
2018-05-21T20:08:20.115Z,7.00
2018-05-21T20:10:49.382Z,16.62
2018-05-21T20:13:19.217Z,9.45
2018-05-21T20:15:49.349Z,8.48
2018-05-21T20:18:29.635Z,8.90
2018-05-21T20:21:07.717Z,7.60
2018-05-21T20:23:42.100Z,8.05
2018-05-21T20:35:49.799Z,5.43
2018-05-21T20:38:28.941Z,9.15
2018-05-21T20:40:58.932Z,7.72
2018-05-21T20:43:32.951Z,5.43
2018-05-21T20:46:05.190Z,8.67
2018-05-21T20:48:36.941Z,21.07
2018-05-21T20:51:17.369Z,36.20
2018-05-21T20:53:47.543Z,34.97
2018-05-21T20:56:20.513Z,37.77
2018-05-21T20:58:52.563Z,40.80
2018-05-21T21:01:22.503Z,38.77
2018-05-21T21:03:55.340Z,38.23
2018-05-21T21:06:29.716Z,53.73
2018-05-21T21:08:59.100Z,40.40
2018-05-21T21:11:41.904Z,47.70
2018-05-21T21:14:13.604Z,44.87
2018-05-21T21:16:45.426Z,42.00
2018-05-21T21:19:16.126Z,57.00
2018-05-21T21:21:48.533Z,47.60
2018-05-21T21:24:18.048Z,45.27
2018-05-21T21:26:48.632Z,40.10
2018-05-21T21:29:17.855Z,44.27
2018-05-21T21:31:50.778Z,43.90
2018-05-21T21:34:19.980Z,41.30
2018-05-21T21:36:49.261Z,48.30
2018-05-21T21:39:20.242Z,50.83
2018-05-21T21:41:49.550Z,45.67
2018-05-21T21:44:21.727Z,45.10
2018-05-21T21:46:51.230Z,46.00
2018-05-21T21:49:20.535Z,38.63
2018-05-21T21:51:57.576Z,45.10
2018-05-21T21:54:29.282Z,50.77
2018-05-21T21:57:01.102Z,48.77
2018-05-21T21:59:30.762Z,48.87
2018-05-21T22:02:00.291Z,50.60
2018-05-21T22:04:30.328Z,48.80
2018-05-21T22:07:02.520Z,50.60
2018-05-21T22:09:37.707Z,50.50
2018-05-21T22:12:11.806Z,53.77
2018-05-21T22:14:41.016Z,48.13
2018-05-21T22:17:10.092Z,45.70
2018-05-21T22:19:39.220Z,46.13
2018-05-21T22:22:09.121Z,46.63
2018-05-21T22:24:39.238Z,42.77
2018-05-21T22:27:08.651Z,47.10
2018-05-21T22:29:38.122Z,45.87
2018-05-21T22:34:44.185Z,43.97
2018-05-21T22:37:13.456Z,42.20
2018-05-21T22:39:44.984Z,47.47
2018-05-21T22:42:15.517Z,50.47
2018-05-21T22:44:48.572Z,51.53
2018-05-21T22:47:17.927Z,49.60
2018-05-21T22:49:47.156Z,63.73
2018-05-21T22:52:16.550Z,53.43
2018-05-21T22:54:46.475Z,60.37
2018-05-21T22:57:15.741Z,55.73
2018-05-21T22:59:44.784Z,63.80
2018-05-21T23:02:13.949Z,68.27
2018-05-21T23:04:44.446Z,62.43
2018-05-21T23:07:13.663Z,63.23
2018-05-21T23:09:42.829Z,57.17
2018-05-21T23:12:12.005Z,66.83
2018-05-21T23:14:42.382Z,76.63
2018-05-21T23:17:11.809Z,71.00
2018-05-21T23:19:41.739Z,79.77
2018-05-21T23:22:16.609Z,75.73
2018-05-21T23:24:45.938Z,75.10
2018-05-21T23:27:16.175Z,74.17
2018-05-21T23:29:45.406Z,67.33
2018-05-21T23:32:14.684Z,67.60
2018-05-21T23:34:46.921Z,64.40
2018-05-21T23:37:16.078Z,71.37
2018-05-21T23:39:45.234Z,63.80
2018-05-21T23:42:14.477Z,68.03
2018-05-21T23:44:43.597Z,66.90
2018-05-21T23:47:13.352Z,69.03
2018-05-21T23:49:44.348Z,67.67
2018-05-21T23:52:13.548Z,69.33
2018-05-21T23:57:33.380Z,70.27
